Time;durP1;ratioP1;P1;durP2;ratioP2;P2;SDS_P1;SDS_P2;PMS_P1;PMS_P2;Temp;Humidity;BMP_temperature;BMP_pressure;BME280_temperature;BME280_humidity;BME280_pressure;Samples;Min_cycle;Max_cycle;Signal;HPM_P1;HPM_P2
2022/12/01 00:00:11;;;;;;;17.63;9.55;;;19.50;61.80;;;;;;4904265;29;20044;-74
2022/12/01 00:02:37;;;;;;;16.48;9.23;;;19.50;61.80;;;;;;4900783;29;20060;-70
2022/12/01 00:05:03;;;;;;;16.73;10.02;;;19.50;61.80;;;;;;4904991;29;20047;-71
2022/12/01 00:07:28;;;;;;;15.15;9.18;;;19.50;61.80;;;;;;4882892;29;20032;-71
2022/12/01 00:12:42;;;;;;;16.83;9.23;;;19.50;61.80;;;;;;4901496;29;20139;-69
2022/12/01 00:15:09;;;;;;;16.98;9.77;;;19.50;61.70;;;;;;4883179;29;21445;-69
2022/12/01 00:17:35;;;;;;;16.27;9.68;;;19.50;61.70;;;;;;4901713;29;21523;-70
2022/12/01 00:20:01;;;;;;;16.77;9.50;;;19.40;62.40;;;;;;4887558;29;20100;-69
2022/12/01 00:22:27;;;;;;;15.18;9.30;;;19.50;61.70;;;;;;4883911;29;20049;-70
2022/12/01 00:24:52;;;;;;;14.98;9.88;;;19.50;61.60;;;;;;4905115;29;20044;-70
2022/12/01 00:27:18;;;;;;;15.65;9.52;;;19.40;62.30;;;;;;4863704;29;20152;-69
2022/12/01 00:29:45;;;;;;;17.42;9.80;;;19.50;61.60;;;;;;4904098;29;20052;-70
2022/12/01 00:32:10;;;;;;;17.55;9.70;;;19.50;61.60;;;;;;4884186;29;20436;-69
2022/12/01 00:34:37;;;;;;;14.75;8.77;;;19.50;61.50;;;;;;4901318;29;20047;-70
2022/12/01 00:37:03;;;;;;;15.57;9.77;;;19.50;61.60;;;;;;4886590;29;20469;-69
2022/12/01 00:39:29;;;;;;;15.95;9.30;;;19.50;61.50;;;;;;4901175;29;20516;-71
2022/12/01 00:41:54;;;;;;;15.93;9.55;;;19.50;61.40;;;;;;4905711;29;20104;-72
2022/12/01 00:44:20;;;;;;;16.13;9.50;;;19.50;61.50;;;;;;4888353;29;20052;-69
2022/12/01 00:46:45;;;;;;;14.43;9.15;;;19.50;61.30;;;;;;4901551;29;20139;-72
2022/12/01 00:49:11;;;;;;;16.33;9.27;;;19.50;61.40;;;;;;4895238;29;20134;-69
2022/12/01 00:51:37;;;;;;;14.80;8.85;;;19.50;61.30;;;;;;4896719;29;20428;-72
2022/12/01 00:54:02;;;;;;;14.60;8.98;;;19.50;61.30;;;;;;4881771;29;20036;-71
2022/12/01 00:56:28;;;;;;;14.55;9.05;;;19.50;61.30;;;;;;4883761;29;20556;-71
2022/12/01 00:58:54;;;;;;;16.33;9.48;;;19.50;61.30;;;;;;4903724;29;20051;-69
2022/12/01 01:01:19;;;;;;;17.30;9.43;;;19.50;61.30;;;;;;4907789;29;20062;-73
2022/12/01 01:03:45;;;;;;;13.73;8.38;;;19.50;61.20;;;;;;4903442;29;20127;-70
2022/12/01 01:06:12;;;;;;;14.98;9.00;;;19.50;61.20;;;;;;4887822;29;20420;-68
2022/12/01 01:08:38;;;;;;;12.68;8.32;;;19.50;61.20;;;;;;4902660;29;20124;-71
2022/12/01 01:11:05;;;;;;;14.35;8.63;;;19.50;61.20;;;;;;4899069;29;20075;-69
2022/12/01 01:13:31;;;;;;;14.00;8.73;;;19.50;61.10;;;;;;4902731;29;20147;-69
2022/12/01 01:16:04;;;;;;;14.23;9.18;;;19.50;61.10;;;;;;4885343;29;20115;-69
2022/12/01 01:18:29;;;;;;;14.63;8.88;;;19.50;61.10;;;;;;4889277;29;20040;-71
2022/12/01 01:20:57;;;;;;;15.02;8.98;;;19.50;61.10;;;;;;4903097;29;20044;-70
2022/12/01 01:23:23;;;;;;;14.17;8.73;;;19.50;61.00;;;;;;4900010;29;20245;-69
2022/12/01 01:25:48;;;;;;;15.52;8.68;;;19.40;61.00;;;;;;4879340;29;20485;-70
2022/12/01 01:28:14;;;;;;;14.50;8.93;;;19.40;61.00;;;;;;4900591;29;20044;-69
2022/12/01 01:30:39;;;;;;;15.38;9.18;;;19.50;60.90;;;;;;4903620;29;20134;-69
2022/12/01 01:33:05;;;;;;;13.50;8.85;;;19.50;60.90;;;;;;4884069;29;20075;-70
2022/12/01 01:35:30;;;;;;;14.63;8.77;;;19.50;60.90;;;;;;4899790;29;20520;-71
2022/12/01 01:37:56;;;;;;;13.68;9.10;;;19.50;60.90;;;;;;4884766;29;20497;-70
2022/12/01 01:40:21;;;;;;;14.02;8.70;;;19.50;60.90;;;;;;4894470;29;20062;-69
2022/12/01 01:42:47;;;;;;;13.20;8.68;;;19.50;60.90;;;;;;4905897;29;20139;-71
2022/12/01 01:45:23;;;;;;;12.73;8.43;;;19.50;60.80;;;;;;4901972;29;20043;-72
2022/12/01 01:47:51;;;;;;;14.25;8.65;;;19.50;60.80;;;;;;4883453;29;20052;-71
2022/12/01 01:50:18;;;;;;;;;;;19.40;60.80;;;;;;4885449;29;20040;-68
2022/12/01 01:52:47;;;;;;;15.90;9.15;;;19.50;60.80;;;;;;4882140;29;20431;-69
2022/12/01 01:55:13;;;;;;;14.27;8.32;;;19.40;60.80;;;;;;4883083;29;20448;-70
2022/12/01 01:57:40;;;;;;;12.43;8.45;;;19.40;60.70;;;;;;4900470;29;20600;-73
2022/12/01 02:00:16;;;;;;;13.98;8.20;;;19.50;60.70;;;;;;4890707;29;20803;-71
2022/12/01 02:02:44;;;;;;;12.55;7.97;;;19.40;60.70;;;;;;4890548;29;20079;-70
2022/12/01 02:05:18;;;;;;;;;;;19.50;60.70;;;;;;4886876;29;20056;-70
2022/12/01 02:07:45;;;;;;;13.23;8.70;;;19.40;60.60;;;;;;4884636;29;20013;-74
2022/12/01 02:10:13;;;;;;;12.63;8.32;;;19.40;60.60;;;;;;4903954;29;20112;-74
2022/12/01 02:12:57;;;;;;;12.27;7.97;;;19.40;60.60;;;;;;4901692;29;20859;-72
2022/12/01 02:15:43;;;;;;;14.05;8.65;;;19.40;60.60;;;;;;4898635;29;20040;-72
2022/12/01 02:18:27;;;;;;;13.02;8.05;;;19.40;60.60;;;;;;4902337;29;20051;-71
2022/12/01 02:21:30;;;;;;;12.35;8.20;;;19.40;60.60;;;;;;4897786;29;20055;-70
2022/12/01 02:24:14;;;;;;;13.30;8.65;;;19.40;60.60;;;;;;4883756;29;20129;-73
2022/12/01 02:27:13;;;;;;;14.35;9.05;;;19.40;60.60;;;;;;4877483;29;20080;-75
2022/12/01 02:30:00;;;;;;;13.23;8.23;;;19.40;60.50;;;;;;4901321;29;20441;-74
2022/12/01 02:32:32;;;;;;;13.40;8.50;;;19.40;60.50;;;;;;4882857;29;20052;-74
2022/12/01 02:35:38;;;;;;;12.85;8.32;;;19.40;60.50;;;;;;4899970;29;20076;-69
2022/12/01 02:38:09;;;;;;;12.85;8.13;;;19.40;60.50;;;;;;4877279;29;20408;-73
2022/12/01 02:40:48;;;;;;;12.18;7.82;;;19.40;60.40;;;;;;4883143;29;20055;-70
2022/12/01 02:43:39;;;;;;;11.90;7.93;;;19.40;60.40;;;;;;4898337;29;20531;-70
2022/12/01 02:46:22;;;;;;;12.02;7.82;;;19.40;60.30;;;;;;4883285;29;20151;-74
2022/12/01 02:48:52;;;;;;;13.18;8.45;;;19.40;60.40;;;;;;4881141;29;20052;-71
2022/12/01 02:51:33;;;;;;;10.77;8.02;;;19.40;60.30;;;;;;4899084;29;20541;-71
2022/12/01 02:54:01;;;;;;;12.65;8.20;;;19.40;60.30;;;;;;4901632;29;20051;-73
2022/12/01 02:56:27;;;;;;;13.40;7.90;;;19.40;60.30;;;;;;4886060;29;20493;-72
2022/12/01 02:58:52;;;;;;;11.63;8.05;;;19.40;60.20;;;;;;4885956;29;20101;-72
2022/12/01 03:01:37;;;;;;;13.52;8.68;;;19.40;60.30;;;;;;4903919;29;20139;-72
2022/12/01 03:04:28;;;;;;;12.70;7.70;;;19.40;60.20;;;;;;4888014;29;20052;-75
2022/12/01 03:07:10;;;;;;;13.68;8.50;;;19.40;60.20;;;;;;4885619;29;20062;-71
2022/12/01 03:10:14;;;;;;;13.48;7.85;;;19.40;60.20;;;;;;4883629;29;20051;-75
2022/12/01 03:13:05;;;;;;;13.57;8.30;;;19.40;60.10;;;;;;4901493;29;20056;-74
2022/12/01 03:15:39;;;;;;;13.93;8.50;;;19.40;60.10;;;;;;4887872;29;20056;-70
2022/12/01 03:18:28;;;;;;;12.60;8.18;;;19.40;60.10;;;;;;4886457;29;20507;-69
2022/12/01 03:21:10;;;;;;;12.23;7.85;;;19.40;60.20;;;;;;4897103;29;20041;-69
2022/12/01 03:23:42;;;;;;;13.13;8.55;;;19.40;60.10;;;;;;4887204;29;20236;-69
2022/12/01 03:26:15;;;;;;;12.38;7.97;;;19.40;60.10;;;;;;4884991;29;20071;-70
2022/12/01 03:28:50;;;;;;;12.32;7.90;;;19.40;60.10;;;;;;4878585;29;20079;-69
2022/12/01 03:31:19;;;;;;;12.13;8.13;;;19.40;60.10;;;;;;4902383;29;20069;-70
2022/12/01 03:34:22;;;;;;;11.48;7.30;;;19.40;60.10;;;;;;4901636;29;20047;-69
2022/12/01 03:36:53;;;;;;;13.27;8.30;;;19.40;60.10;;;;;;4872592;29;20065;-70
2022/12/01 03:39:24;;;;;;;12.13;7.72;;;19.40;60.10;;;;;;4885388;29;20052;-69
2022/12/01 03:41:57;;;;;;;13.05;7.97;;;19.40;60.00;;;;;;4902587;29;20050;-70
2022/12/01 03:44:29;;;;;;;12.43;7.85;;;19.40;60.10;;;;;;4904404;29;20036;-69
2022/12/01 03:47:09;;;;;;;12.88;8.10;;;19.40;60.00;;;;;;4888076;29;20048;-73
2022/12/01 03:49:35;;;;;;;11.60;8.15;;;19.40;60.00;;;;;;4887554;29;20500;-69
2022/12/01 03:52:27;;;;;;;10.77;7.72;;;19.40;60.10;;;;;;4886833;29;20074;-70
2022/12/01 03:55:03;;;;;;;12.98;8.50;;;19.40;60.00;;;;;;4885348;29;20064;-69
2022/12/01 03:57:39;;;;;;;13.98;8.35;;;19.40;60.00;;;;;;4882272;29;20088;-69
2022/12/01 04:00:07;;;;;;;11.70;7.90;;;19.40;60.00;;;;;;4904944;29;20046;-72
2022/12/01 04:02:32;;;;;;;12.70;8.20;;;19.40;60.00;;;;;;4890392;29;20045;-71
2022/12/01 04:04:58;;;;;;;10.30;7.60;;;19.40;60.00;;;;;;4903563;29;20532;-69
2022/12/01 04:07:24;;;;;;;12.90;8.45;;;19.40;60.00;;;;;;4897897;29;20048;-71
2022/12/01 04:09:49;;;;;;;16.15;8.25;;;19.40;60.00;;;;;;4885585;29;20032;-68
2022/12/01 04:12:33;;;;;;;12.32;7.95;;;19.40;59.90;;;;;;4897521;29;20066;-69
2022/12/01 04:15:06;;;;;;;11.57;7.78;;;19.40;59.90;;;;;;4879629;29;20052;-70
2022/12/01 04:17:32;;;;;;;11.20;7.75;;;19.40;59.90;;;;;;4898211;29;20045;-70
2022/12/01 04:19:58;;;;;;;13.10;7.60;;;19.40;60.00;;;;;;4904379;29;20054;-72
2022/12/01 04:22:24;;;;;;;10.73;7.43;;;19.40;59.90;;;;;;4886592;29;20504;-69
2022/12/01 04:24:50;;;;;;;13.45;7.95;;;19.40;59.90;;;;;;4903557;29;20515;-70
2022/12/01 04:27:16;;;;;;;13.40;8.57;;;19.40;59.90;;;;;;4892391;29;20048;-72
2022/12/01 04:29:41;;;;;;;13.75;8.32;;;19.40;59.90;;;;;;4884650;29;20148;-69
2022/12/01 04:32:07;;;;;;;13.00;8.15;;;19.40;59.80;;;;;;4904962;29;20049;-69
2022/12/01 04:34:32;;;;;;;12.93;7.95;;;19.40;59.90;;;;;;4903005;29;20720;-72
2022/12/01 04:36:58;;;;;;;12.43;8.02;;;19.40;59.80;;;;;;4901892;29;20044;-72
2022/12/01 04:39:23;;;;;;;12.27;8.18;;;19.40;59.80;;;;;;4902761;29;20052;-70
2022/12/01 04:41:49;;;;;;;11.90;7.90;;;19.40;59.80;;;;;;4866339;29;20135;-70
2022/12/01 04:44:15;;;;;;;11.85;7.40;;;19.40;59.80;;;;;;4886224;29;20044;-69
2022/12/01 04:46:40;;;;;;;13.23;7.90;;;19.40;59.80;;;;;;4885565;29;20572;-71
2022/12/01 04:49:06;;;;;;;13.93;8.32;;;19.40;59.80;;;;;;4903146;29;20040;-69
2022/12/01 04:51:31;;;;;;;11.90;7.70;;;19.40;59.80;;;;;;4900867;29;20036;-70
2022/12/01 04:53:57;;;;;;;12.52;7.75;;;19.30;59.70;;;;;;4888408;29;20106;-69
2022/12/01 04:56:23;;;;;;;12.75;8.02;;;19.40;59.70;;;;;;4901641;29;20495;-70
2022/12/01 04:58:49;;;;;;;12.85;8.40;;;19.40;59.80;;;;;;4886703;29;20209;-70
2022/12/01 05:01:16;;;;;;;12.25;8.18;;;19.40;59.80;;;;;;4887128;29;20050;-71
2022/12/01 05:03:44;;;;;;;11.18;7.88;;;19.40;59.80;;;;;;4905518;29;20044;-69
2022/12/01 05:06:13;;;;;;;12.80;7.85;;;19.30;59.70;;;;;;4902206;29;20496;-69
2022/12/01 05:08:40;;;;;;;12.45;7.72;;;19.40;59.80;;;;;;4883405;29;20059;-70
2022/12/01 05:11:10;;;;;;;14.02;8.02;;;19.30;59.70;;;;;;4903360;29;20040;-70
2022/12/01 05:13:40;;;;;;;14.55;8.80;;;19.40;59.70;;;;;;4884533;29;20139;-72
2022/12/01 05:16:10;;;;;;;12.82;8.02;;;19.40;59.70;;;;;;4902495;29;20416;-70
2022/12/01 05:18:36;;;;;;;11.50;7.50;;;19.40;59.70;;;;;;4884022;29;20401;-71
2022/12/01 05:21:03;;;;;;;13.20;8.20;;;19.40;59.70;;;;;;4901984;29;20087;-73
2022/12/01 05:23:31;;;;;;;12.05;7.78;;;19.40;59.70;;;;;;4901292;29;20062;-69
2022/12/01 05:25:57;;;;;;;11.77;7.88;;;19.40;59.70;;;;;;4882155;29;20744;-69
2022/12/01 05:28:25;;;;;;;11.45;7.78;;;19.30;59.60;;;;;;4875430;29;20135;-70
2022/12/01 05:30:51;;;;;;;12.38;7.82;;;19.30;59.60;;;;;;4887200;29;20044;-69
2022/12/01 05:33:17;;;;;;;12.43;7.97;;;19.30;59.60;;;;;;4900386;29;20040;-69
2022/12/01 05:35:43;;;;;;;12.63;7.95;;;19.30;59.60;;;;;;4885380;29;20083;-69
2022/12/01 05:38:09;;;;;;;11.80;7.90;;;19.30;60.30;;;;;;4901539;29;20531;-70
2022/12/01 05:40:35;;;;;;;12.90;8.05;;;19.30;59.50;;;;;;4881674;29;20148;-70
2022/12/01 05:43:01;;;;;;;11.50;8.10;;;19.30;59.60;;;;;;4883737;29;20143;-70
2022/12/01 05:45:27;;;;;;;14.13;8.25;;;19.30;59.50;;;;;;4882391;29;20040;-69
2022/12/01 05:47:54;;;;;;;12.07;8.13;;;19.30;59.60;;;;;;4900700;29;21016;-72
2022/12/01 05:50:20;;;;;;;12.30;8.20;;;19.30;59.50;;;;;;4886476;29;20465;-70
2022/12/01 05:52:46;;;;;;;12.77;8.15;;;19.30;59.50;;;;;;4899252;29;20040;-71
2022/12/01 05:55:11;;;;;;;12.55;8.35;;;19.30;59.50;;;;;;4900493;29;20100;-71
2022/12/01 05:57:37;;;;;;;12.77;7.97;;;19.30;59.50;;;;;;4899498;29;20047;-69
2022/12/01 06:00:04;;;;;;;13.63;8.43;;;19.30;59.50;;;;;;4884374;29;20047;-68
2022/12/01 06:02:30;;;;;;;11.60;7.57;;;19.40;59.60;;;;;;4884103;29;20529;-71
2022/12/01 06:04:55;;;;;;;11.77;7.90;;;19.30;59.50;;;;;;4885044;29;20044;-71
2022/12/01 06:07:24;;;;;;;13.50;8.52;;;19.30;59.50;;;;;;4896517;29;20508;-71
2022/12/01 06:09:49;;;;;;;11.23;8.00;;;19.40;59.60;;;;;;4900400;29;20049;-70
2022/12/01 06:12:15;;;;;;;12.25;8.13;;;19.30;59.50;;;;;;4901805;29;20054;-69
2022/12/01 06:14:41;;;;;;;11.73;7.80;;;19.30;59.50;;;;;;4898198;29;20183;-71
2022/12/01 06:17:06;;;;;;;11.65;7.75;;;19.30;59.50;;;;;;4882397;29;20048;-69
2022/12/01 06:19:32;;;;;;;13.70;8.70;;;19.30;59.50;;;;;;4901326;29;20040;-70
2022/12/01 06:21:57;;;;;;;12.25;7.95;;;19.30;59.50;;;;;;4898814;29;20143;-71
2022/12/01 06:24:23;;;;;;;13.93;8.35;;;19.30;59.40;;;;;;4888226;29;20054;-70
2022/12/01 06:26:48;;;;;;;12.60;8.57;;;19.30;59.40;;;;;;4882109;29;20044;-70
2022/12/01 06:29:14;;;;;;;11.68;7.72;;;19.30;59.40;;;;;;4889796;29;20386;-70
2022/12/01 06:31:40;;;;;;;12.68;8.45;;;19.30;59.50;;;;;;4897630;29;20052;-68
2022/12/01 06:34:05;;;;;;;15.23;8.75;;;19.30;59.50;;;;;;4904762;29;20048;-70
2022/12/01 06:36:31;;;;;;;14.45;9.15;;;19.30;59.60;;;;;;4901405;29;20100;-70
2022/12/01 06:38:57;;;;;;;15.23;9.02;;;19.30;59.70;;;;;;4887317;29;20083;-69
2022/12/01 06:41:22;;;;;;;13.35;8.52;;;19.40;59.80;;;;;;4890426;29;20524;-69
2022/12/01 06:43:48;;;;;;;14.50;8.43;;;19.40;59.80;;;;;;4884636;29;20054;-68
2022/12/01 06:46:13;;;;;;;14.02;8.65;;;19.40;59.80;;;;;;4888099;29;20040;-68
2022/12/01 06:48:39;;;;;;;15.45;9.00;;;19.40;59.90;;;;;;4884550;29;20091;-71
2022/12/01 06:51:05;;;;;;;13.77;8.75;;;19.50;60.00;;;;;;4905609;29;20079;-69
2022/12/01 06:53:30;;;;;;;13.85;8.68;;;19.50;59.90;;;;;;4901229;29;20095;-69
2022/12/01 06:56:00;;;;;;;16.27;9.23;;;19.50;60.00;;;;;;4889100;29;20040;-68
2022/12/01 06:58:26;;;;;;;16.10;8.85;;;19.50;59.90;;;;;;4875554;29;20047;-72
2022/12/01 07:00:56;;;;;;;13.20;8.95;;;19.50;59.90;;;;;;4879696;29;20048;-73
2022/12/01 07:03:21;;;;;;;14.48;8.60;;;19.50;59.90;;;;;;4887788;29;20048;-68
2022/12/01 07:06:07;;;;;;;17.58;8.95;;;19.50;59.90;;;;;;4903448;29;20056;-69
2022/12/01 07:08:33;;;;;;;14.23;8.55;;;19.50;60.00;;;;;;4895731;29;20051;-68
2022/12/01 07:11:07;;;;;;;16.02;9.02;;;19.50;60.00;;;;;;4902449;29;20531;-69
2022/12/01 07:13:33;;;;;;;15.30;9.30;;;19.50;60.10;;;;;;4883479;29;20053;-69
2022/12/01 07:15:59;;;;;;;16.80;8.85;;;19.50;60.10;;;;;;4883007;29;20112;-74
2022/12/01 07:18:25;;;;;;;16.20;9.38;;;19.50;60.10;;;;;;4890628;29;20563;-69
2022/12/01 07:20:50;;;;;;;15.50;8.82;;;19.50;60.20;;;;;;4908665;29;20048;-70
2022/12/01 07:23:16;;;;;;;16.08;9.30;;;19.50;60.20;;;;;;4908021;29;20497;-69
2022/12/01 07:25:41;;;;;;;16.08;9.25;;;19.50;60.30;;;;;;4909935;29;20159;-68
2022/12/01 07:28:07;;;;;;;16.27;9.07;;;19.50;60.30;;;;;;4895888;29;20579;-67
2022/12/01 07:30:32;;;;;;;14.02;8.68;;;19.50;60.30;;;;;;4909027;29;20047;-69
2022/12/01 07:32:58;;;;;;;15.98;9.73;;;19.50;60.30;;;;;;4881923;29;20098;-68
2022/12/01 07:35:25;;;;;;;19.50;11.13;;;19.50;60.20;;;;;;4907721;29;20051;-70
2022/12/01 07:37:55;;;;;;;16.50;10.15;;;19.50;59.90;;;;;;4907136;29;20055;-70
2022/12/01 07:40:21;;;;;;;16.40;9.95;;;19.50;59.90;;;;;;4906415;29;20087;-69
2022/12/01 07:42:47;;;;;;;17.35;10.02;;;19.50;59.90;;;;;;4908799;29;20993;-69
2022/12/01 07:45:12;;;;;;;14.43;9.65;;;19.50;59.90;;;;;;4906339;29;20480;-70
2022/12/01 07:47:38;;;;;;;15.90;10.13;;;19.40;59.80;;;;;;4907959;29;20075;-70
2022/12/01 07:50:04;;;;;;;17.88;10.10;;;19.40;59.80;;;;;;4907071;29;20072;-69
2022/12/01 07:52:30;;;;;;;16.25;9.75;;;19.40;59.80;;;;;;4906728;29;20119;-70
2022/12/01 07:54:55;;;;;;;18.35;9.18;;;19.50;59.80;;;;;;4903331;29;20600;-69
2022/12/01 07:57:22;;;;;;;15.82;9.52;;;19.50;59.80;;;;;;4906657;29;20754;-68
2022/12/01 07:59:48;;;;;;;15.10;9.38;;;19.50;59.80;;;;;;4904731;29;20103;-70
2022/12/01 08:02:14;;;;;;;14.20;9.25;;;19.50;59.80;;;;;;4896864;29;20048;-70
2022/12/01 08:04:39;;;;;;;16.88;10.05;;;19.50;59.80;;;;;;4909529;29;20071;-68
2022/12/01 08:07:06;;;;;;;16.60;9.90;;;19.50;59.80;;;;;;4900388;29;20119;-70
2022/12/01 08:09:32;;;;;;;16.70;9.90;;;19.50;59.80;;;;;;4877162;29;20402;-70
2022/12/01 08:11:58;;;;;;;18.67;9.90;;;19.50;59.80;;;;;;4904978;29;20517;-69
2022/12/01 08:14:23;;;;;;;18.80;9.55;;;19.50;59.80;;;;;;4907814;29;20067;-69
2022/12/01 08:16:49;;;;;;;16.92;10.20;;;19.50;59.80;;;;;;4908065;29;20054;-70
2022/12/01 08:19:14;;;;;;;21.55;11.52;;;19.50;59.50;;;;;;4892364;29;20052;-71
2022/12/01 08:21:40;;;;;;;22.70;13.02;;;19.40;59.10;;;;;;4900717;29;20042;-71
2022/12/01 08:24:06;;;;;;;23.63;12.60;;;19.40;58.80;;;;;;4894142;29;20052;-70
2022/12/01 08:26:32;;;;;;;22.00;12.60;;;19.40;58.60;;;;;;4890183;29;20048;-68
2022/12/01 08:29:00;;;;;;;23.58;13.10;;;19.40;58.50;;;;;;4871048;29;20067;-68
2022/12/01 08:31:29;;;;;;;22.48;12.70;;;19.40;58.40;;;;;;4886253;29;20052;-68
2022/12/01 08:33:58;;;;;;;24.30;13.05;;;19.40;58.30;;;;;;4877482;29;20052;-68
2022/12/01 08:36:24;;;;;;;22.63;12.73;;;19.40;58.20;;;;;;4907930;29;20037;-68
2022/12/01 08:38:52;;;;;;;22.25;13.77;;;19.40;58.10;;;;;;4907699;29;20048;-68
2022/12/01 08:41:18;;;;;;;22.67;12.82;;;19.40;57.80;;;;;;4897711;29;20452;-68
2022/12/01 08:43:44;;;;;;;22.95;13.00;;;19.40;57.80;;;;;;4908434;29;20071;-68
2022/12/01 08:46:13;;;;;;;23.55;13.15;;;19.40;57.70;;;;;;4890917;29;20812;-69
2022/12/01 08:48:39;;;;;;;24.95;13.02;;;19.40;57.60;;;;;;4907736;29;20059;-68
2022/12/01 08:51:13;;;;;;;27.95;12.52;;;19.50;57.50;;;;;;4895550;29;20160;-70
2022/12/01 08:53:42;;;;;;;22.70;13.23;;;19.50;57.30;;;;;;4891644;29;20102;-68
2022/12/01 08:56:13;;;;;;;21.65;12.50;;;19.50;57.30;;;;;;4892147;29;20401;-69
2022/12/01 08:58:38;;;;;;;21.85;12.65;;;19.50;57.10;;;;;;4892306;29;20155;-68
2022/12/01 09:01:07;;;;;;;22.23;12.57;;;19.50;57.00;;;;;;4892384;29;20465;-69
2022/12/01 09:03:34;;;;;;;20.98;12.77;;;19.50;57.00;;;;;;4892063;29;20044;-69
2022/12/01 09:06:10;;;;;;;26.23;12.90;;;19.50;56.90;;;;;;4906424;29;20067;-70
2022/12/01 09:08:36;;;;;;;21.38;12.60;;;19.50;56.70;;;;;;4902277;29;20067;-67
2022/12/01 09:11:05;;;;;;;22.55;12.63;;;19.50;56.70;;;;;;4904198;29;20070;-69
2022/12/01 09:13:32;;;;;;;22.55;12.60;;;19.50;56.60;;;;;;4904334;29;20044;-69
2022/12/01 09:16:01;;;;;;;27.63;13.73;;;19.60;56.60;;;;;;4895729;29;20107;-68
2022/12/01 09:18:27;;;;;;;24.63;13.82;;;19.60;56.60;;;;;;4897517;29;20036;-68
2022/12/01 09:20:53;;;;;;;21.85;12.88;;;19.60;56.50;;;;;;4866240;29;20138;-68
2022/12/01 09:23:20;;;;;;;20.88;13.10;;;19.60;56.40;;;;;;4902392;29;20832;-69
2022/12/01 09:25:46;;;;;;;22.33;12.95;;;19.60;56.30;;;;;;4890575;29;20044;-68
2022/12/01 09:28:12;;;;;;;22.58;13.40;;;19.60;56.20;;;;;;4891097;29;20047;-70
2022/12/01 09:30:38;;;;;;;20.25;13.10;;;19.60;56.10;;;;;;4898018;29;20061;-68
2022/12/01 09:33:03;;;;;;;23.40;12.95;;;19.60;56.10;;;;;;4906457;29;20052;-69
2022/12/01 09:35:30;;;;;;;19.80;12.70;;;19.60;56.00;;;;;;4867459;29;20054;-68
2022/12/01 09:37:57;;;;;;;20.02;12.02;;;19.60;55.90;;;;;;4895703;29;20044;-68
2022/12/01 09:40:29;;;;;;;24.27;12.60;;;19.60;55.80;;;;;;4889096;29;20191;-68
2022/12/01 09:42:55;;;;;;;20.98;12.55;;;19.60;55.70;;;;;;4904023;29;20063;-67
2022/12/01 09:45:27;;;;;;;22.38;12.45;;;19.70;55.80;;;;;;4905131;29;20048;-71
2022/12/01 09:47:55;;;;;;;22.42;13.15;;;19.60;55.60;;;;;;4867559;29;20060;-68
2022/12/01 09:50:24;;;;;;;22.08;13.13;;;19.60;55.60;;;;;;4903070;29;20129;-67
2022/12/01 09:52:52;;;;;;;;;;;19.60;55.50;;;;;;4905421;29;20516;-68
2022/12/01 09:55:19;;;;;;;20.10;12.00;;;19.60;55.40;;;;;;4886688;29;19993;-68
2022/12/01 09:57:51;;;;;;;21.95;12.20;;;19.60;55.70;;;;;;4887698;29;20040;-67
2022/12/01 10:00:26;;;;;;;22.30;12.68;;;19.50;55.80;;;;;;4907443;29;20048;-69
2022/12/01 10:03:22;;;;;;;22.57;12.57;;;19.50;56.10;;;;;;4901333;29;20151;-70
2022/12/01 10:05:54;;;;;;;20.73;12.18;;;19.50;56.20;;;;;;4875496;29;21439;-69
2022/12/01 10:08:23;;;;;;;19.60;12.43;;;19.50;56.30;;;;;;4901150;29;20503;-68
2022/12/01 10:10:51;;;;;;;21.60;12.48;;;19.50;56.40;;;;;;4890232;29;20127;-69
2022/12/01 10:13:19;;;;;;;;;;;19.50;56.40;;;;;;4884609;29;20059;-69
2022/12/01 10:15:52;;;;;;;20.42;11.70;;;19.50;56.50;;;;;;4885352;29;20446;-69
2022/12/01 10:18:46;;;;;;;21.08;11.68;;;19.50;56.40;;;;;;4904307;29;20044;-68
2022/12/01 10:21:39;;;;;;;20.15;11.88;;;19.50;56.20;;;;;;4884674;29;20112;-67
2022/12/01 10:24:10;;;;;;;19.08;11.73;;;19.50;56.10;;;;;;4869353;29;20413;-70
2022/12/01 10:26:54;;;;;;;21.35;12.30;;;19.50;56.90;;;;;;4883280;29;20048;-68
2022/12/01 10:29:36;;;;;;;24.13;12.80;;;19.50;55.90;;;;;;4888289;29;20060;-71
2022/12/01 10:32:14;;;;;;;35.70;18.75;;;19.50;55.90;;;;;;4906543;29;20044;-71
2022/12/01 10:34:42;;;;;;;34.67;19.73;;;19.50;55.10;;;;;;4904201;29;20049;-70
2022/12/01 10:37:23;;;;;;;32.40;16.05;;;19.40;54.40;;;;;;4888194;29;20313;-67
2022/12/01 10:39:51;;;;;;;29.35;15.98;;;19.30;54.70;;;;;;4906731;29;20543;-69
2022/12/01 10:42:36;;;;;;;30.70;16.17;;;19.20;55.00;;;;;;4897136;29;20087;-67
2022/12/01 10:45:06;;;;;;;29.30;14.35;;;19.20;55.00;;;;;;4908790;29;20050;-70
2022/12/01 10:47:31;;;;;;;25.98;14.18;;;19.20;55.10;;;;;;4905212;29;20813;-67
2022/12/01 10:49:57;;;;;;;24.70;14.20;;;19.30;55.10;;;;;;4871061;29;20044;-69
2022/12/01 10:52:37;;;;;;;23.17;13.77;;;19.20;55.00;;;;;;4906290;29;20556;-67
2022/12/01 10:55:22;;;;;;;22.55;13.75;;;19.30;55.00;;;;;;4905604;29;20055;-67
2022/12/01 10:57:49;;;;;;;21.40;13.30;;;19.30;55.00;;;;;;4887411;29;20107;-70
2022/12/01 11:00:27;;;;;;;22.15;13.60;;;19.40;55.10;;;;;;4905965;29;20052;-67
2022/12/01 11:02:53;;;;;;;22.17;13.02;;;19.40;55.00;;;;;;4895034;29;20200;-67
2022/12/01 11:05:25;;;;;;;22.90;13.43;;;19.40;55.00;;;;;;4907492;29;20060;-67
2022/12/01 11:07:53;;;;;;;21.63;12.68;;;19.50;54.90;;;;;;4889565;29;20059;-66
2022/12/01 11:10:23;;;;;;;20.58;12.32;;;19.50;54.90;;;;;;4905933;29;20043;-67
2022/12/01 11:13:13;;;;;;;21.10;12.95;;;19.50;54.90;;;;;;4887216;29;20140;-68
2022/12/01 11:15:56;;;;;;;21.25;12.27;;;19.50;54.80;;;;;;4889059;29;20481;-66
2022/12/01 11:18:27;;;;;;;19.35;11.77;;;19.50;54.80;;;;;;4905999;29;20409;-67
2022/12/01 11:21:13;;;;;;;19.45;12.02;;;19.50;54.80;;;;;;4907330;29;20048;-68
2022/12/01 11:23:57;;;;;;;20.73;12.10;;;19.50;54.70;;;;;;4884400;29;20056;-67
2022/12/01 11:26:29;;;;;;;21.50;12.35;;;19.60;54.80;;;;;;4888781;29;20055;-66
2022/12/01 11:29:05;;;;;;;18.33;12.23;;;19.60;54.80;;;;;;4873031;29;20052;-66
2022/12/01 11:31:44;;;;;;;20.48;11.82;;;19.60;54.70;;;;;;4897750;29;20051;-67
2022/12/01 11:34:17;;;;;;;;;;;19.60;54.70;;;;;;4868295;29;20124;-69
2022/12/01 11:36:46;;;;;;;20.10;12.05;;;19.60;54.80;;;;;;4907908;29;20149;-68
2022/12/01 11:39:39;;;;;;;17.77;11.15;;;19.60;54.80;;;;;;4902745;29;20056;-66
2022/12/01 11:42:10;;;;;;;20.88;11.48;;;19.60;54.70;;;;;;4901576;29;20071;-70
2022/12/01 11:44:37;;;;;;;19.52;11.30;;;19.60;54.80;;;;;;4884252;29;20056;-71
2022/12/01 11:47:17;;;;;;;18.45;11.50;;;19.60;54.80;;;;;;4888495;29;20044;-70
2022/12/01 11:49:51;;;;;;;18.77;11.88;;;19.60;54.70;;;;;;4900565;29;20045;-66
2022/12/01 11:52:35;;;;;;;18.80;11.45;;;19.60;54.80;;;;;;4887330;29;20052;-67
2022/12/01 11:55:10;;;;;;;17.35;11.55;;;19.60;54.80;;;;;;4885974;29;20036;-68
2022/12/01 11:57:37;;;;;;;17.70;11.40;;;19.60;54.80;;;;;;4887734;29;20044;-72
2022/12/01 12:00:19;;;;;;;19.50;11.50;;;19.60;54.80;;;;;;4901992;29;20048;-66
2022/12/01 12:02:58;;;;;;;19.77;11.82;;;19.60;54.70;;;;;;4901479;29;20033;-73
2022/12/01 12:05:26;;;;;;;17.15;11.52;;;19.60;54.80;;;;;;4900424;29;20132;-67
2022/12/01 12:08:07;;;;;;;17.63;10.77;;;19.60;54.80;;;;;;4883772;29;20083;-67
2022/12/01 12:10:43;;;;;;;18.30;11.27;;;19.60;54.80;;;;;;4876991;29;20055;-70
2022/12/01 12:13:15;;;;;;;16.25;10.85;;;19.60;54.80;;;;;;4884670;29;20343;-70
2022/12/01 12:15:52;;;;;;;19.13;11.40;;;19.60;54.80;;;;;;4900175;29;20445;-67
2022/12/01 12:18:55;;;;;;;18.38;11.40;;;19.60;54.70;;;;;;4895578;29;20047;-66
2022/12/01 12:21:24;;;;;;;17.75;11.55;;;19.60;54.60;;;;;;4893990;29;20096;-67
2022/12/01 12:24:08;;;;;;;18.73;11.80;;;19.60;54.70;;;;;;4906933;29;20111;-69
2022/12/01 12:26:46;;;;;;;19.83;11.48;;;19.50;54.40;;;;;;4888136;29;21874;-67
2022/12/01 12:29:37;;;;;;;19.33;12.07;;;19.50;54.30;;;;;;4907066;29;20079;-69
2022/12/01 12:32:27;;;;;;;19.40;11.40;;;19.50;54.10;;;;;;4886241;29;20059;-68
2022/12/01 12:35:31;;;;;;;17.80;11.95;;;19.50;54.20;;;;;;4908326;29;20108;-68
2022/12/01 12:38:07;;;;;;;18.48;11.82;;;19.50;54.20;;;;;;4906233;29;20060;-68
2022/12/01 12:40:40;;;;;;;18.23;10.90;;;19.50;54.30;;;;;;4908922;29;20523;-70
2022/12/01 12:43:56;;;;;;;23.58;11.65;;;19.50;54.30;;;;;;4900921;29;20044;-68
2022/12/01 12:46:46;;;;;;;19.13;12.20;;;19.50;54.30;;;;;;4903676;29;20052;-70
2022/12/01 12:49:30;;;;;;;16.83;10.73;;;19.50;54.30;;;;;;4908627;29;20096;-71
2022/12/01 12:52:34;;;;;;;17.80;11.32;;;19.50;54.40;;;;;;4890373;29;20539;-69
2022/12/01 12:55:26;;;;;;;19.60;11.85;;;19.50;54.40;;;;;;4856709;29;20068;-69
2022/12/01 12:58:09;;;;;;;15.75;10.40;;;19.50;54.50;;;;;;4887530;29;20078;-70